Time;durP1;ratioP1;P1;durP2;ratioP2;P2;SDS_P1;SDS_P2;PMS_P1;PMS_P2;Temp;Humidity;BMP_temperature;BMP_pressure;BME280_temperature;BME280_humidity;BME280_pressure;Samples;Min_cycle;Max_cycle;Signal;HPM_P1;HPM_P2
2023/05/04 00:01:39;;;;;;;6.73;3.30;;;5.10;99.90;;;;;;5076787;28;20295;-76
2023/05/04 00:04:06;;;;;;;7.07;3.77;;;5.10;99.90;;;;;;5082172;28;20225;-76
2023/05/04 00:06:32;;;;;;;6.17;3.57;;;5.10;99.90;;;;;;5079458;28;20245;-76
2023/05/04 00:09:01;;;;;;;9.20;3.60;;;5.00;99.90;;;;;;5067959;28;20235;-77
2023/05/04 00:11:27;;;;;;;8.30;3.40;;;4.90;99.90;;;;;;5087354;28;20297;-76
2023/05/04 00:13:54;;;;;;;7.50;3.80;;;4.90;99.90;;;;;;5086578;28;20227;-77
2023/05/04 00:16:21;;;;;;;4.30;3.27;;;4.90;99.90;;;;;;5074724;28;20222;-76
2023/05/04 00:18:47;;;;;;;10.77;4.30;;;4.80;99.90;;;;;;5077161;28;20224;-76
2023/05/04 00:21:14;;;;;;;9.70;3.83;;;4.80;99.90;;;;;;5077547;28;20309;-77
2023/05/04 00:23:40;;;;;;;7.13;3.73;;;4.80;99.90;;;;;;5074273;28;20236;-76
2023/05/04 00:26:09;;;;;;;6.33;3.40;;;4.70;99.90;;;;;;5077516;28;20229;-75
2023/05/04 00:28:36;;;;;;;8.20;3.53;;;4.70;99.90;;;;;;5064066;28;20225;-77
2023/05/04 00:31:03;;;;;;;5.53;3.67;;;4.70;99.90;;;;;;5062243;28;20281;-77
2023/05/04 00:33:30;;;;;;;5.33;3.50;;;4.60;99.90;;;;;;5077424;28;20222;-77
2023/05/04 00:35:57;;;;;;;6.07;3.40;;;4.60;99.90;;;;;;5072896;28;20238;-76
2023/05/04 00:38:24;;;;;;;8.00;3.70;;;4.50;99.90;;;;;;5082676;28;20249;-76
2023/05/04 00:40:51;;;;;;;6.23;3.60;;;4.50;99.90;;;;;;5064432;28;20344;-77
2023/05/04 00:43:19;;;;;;;9.70;4.20;;;4.40;99.90;;;;;;5083532;28;20226;-77
2023/05/04 00:45:46;;;;;;;8.77;3.93;;;4.40;99.90;;;;;;5084809;28;20228;-77
2023/05/04 00:48:13;;;;;;;7.57;3.83;;;4.40;99.90;;;;;;5061787;28;20739;-77
2023/05/04 00:50:41;;;;;;;7.93;4.47;;;4.30;99.90;;;;;;5069347;28;20229;-76
2023/05/04 00:53:10;;;;;;;8.20;4.40;;;4.30;99.90;;;;;;5071074;28;20759;-76
2023/05/04 00:55:39;;;;;;;11.40;4.40;;;4.30;99.90;;;;;;5085235;28;20236;-76
2023/05/04 00:58:06;;;;;;;9.40;4.30;;;4.30;99.90;;;;;;5064725;28;20241;-77
2023/05/04 01:00:35;;;;;;;8.87;3.87;;;4.20;99.90;;;;;;5069331;28;20307;-77
2023/05/04 01:03:02;;;;;;;10.70;4.90;;;4.20;99.90;;;;;;5067017;28;20219;-75
2023/05/04 01:05:35;;;;;;;8.67;5.30;;;4.20;99.90;;;;;;5066786;28;20623;-77
2023/05/04 01:08:08;;;;;;;10.60;5.13;;;4.10;99.90;;;;;;5079664;28;20225;-76
2023/05/04 01:10:40;;;;;;;7.20;4.67;;;4.10;99.90;;;;;;5084341;28;20240;-77
2023/05/04 01:13:10;;;;;;;10.83;5.07;;;4.10;99.90;;;;;;5087641;28;20242;-77
2023/05/04 01:15:39;;;;;;;6.63;4.03;;;4.00;99.90;;;;;;5082379;28;20228;-77
2023/05/04 01:18:06;;;;;;;6.07;4.03;;;4.00;99.90;;;;;;5079328;28;20218;-77
2023/05/04 01:20:33;;;;;;;8.93;3.97;;;4.00;99.90;;;;;;5068609;28;20217;-76
2023/05/04 01:23:02;;;;;;;7.80;3.97;;;3.90;99.90;;;;;;5069883;28;20236;-77
2023/05/04 01:25:33;;;;;;;8.47;4.30;;;3.90;99.90;;;;;;5068632;28;20285;-77
2023/05/04 01:28:07;;;;;;;7.80;4.17;;;3.80;99.90;;;;;;5088045;28;20262;-77
2023/05/04 01:30:38;;;;;;;7.57;4.40;;;3.80;99.90;;;;;;5080112;28;20232;-76
2023/05/04 01:33:06;;;;;;;8.80;3.93;;;3.80;99.90;;;;;;5079137;28;20225;-78
2023/05/04 01:35:36;;;;;;;9.60;4.10;;;3.70;99.90;;;;;;5081725;28;20249;-77
2023/05/04 01:38:05;;;;;;;6.63;4.23;;;3.70;99.90;;;;;;5058234;28;20252;-76
2023/05/04 01:40:32;;;;;;;11.40;4.20;;;3.70;99.90;;;;;;5063319;28;20753;-77
2023/05/04 01:42:59;;;;;;;10.23;4.60;;;3.60;99.90;;;;;;5079716;28;20230;-76
2023/05/04 01:45:26;;;;;;;5.83;3.87;;;3.60;99.90;;;;;;5061363;28;20677;-77
2023/05/04 01:47:53;;;;;;;8.03;4.57;;;3.50;99.90;;;;;;5081127;28;20772;-76
2023/05/04 01:50:20;;;;;;;11.67;4.70;;;3.50;99.90;;;;;;5064199;28;20237;-77
2023/05/04 01:52:46;;;;;;;10.20;4.60;;;3.50;99.90;;;;;;5089605;22;20288;-80
2023/05/04 01:55:15;;;;;;;9.63;4.40;;;3.40;99.90;;;;;;5064454;28;20220;-81
2023/05/04 01:57:41;;;;;;;10.53;4.97;;;3.40;99.90;;;;;;5063365;28;20225;-82
2023/05/04 02:00:09;;;;;;;9.20;4.30;;;3.40;99.90;;;;;;5066506;28;20229;-80
2023/05/04 02:02:45;;;;;;;8.37;4.20;;;3.40;99.90;;;;;;5084871;28;20240;-79
2023/05/04 02:05:16;;;;;;;9.30;4.60;;;3.40;99.90;;;;;;5072665;28;20216;-79
2023/05/04 02:07:43;;;;;;;10.70;4.90;;;3.40;99.90;;;;;;5074265;28;20315;-79
2023/05/04 02:10:10;;;;;;;8.17;3.97;;;3.30;99.90;;;;;;5078779;28;20229;-80
2023/05/04 02:12:38;;;;;;;9.03;4.50;;;3.30;99.90;;;;;;5095911;28;20258;-79
2023/05/04 02:15:05;;;;;;;7.67;4.13;;;3.30;99.90;;;;;;5070842;28;20253;-79
2023/05/04 02:17:32;;;;;;;9.87;4.77;;;3.30;99.90;;;;;;5076991;28;20227;-79
2023/05/04 02:19:59;;;;;;;7.83;4.20;;;3.30;99.90;;;;;;5081541;28;20682;-80
2023/05/04 02:22:26;;;;;;;8.63;4.37;;;3.30;99.90;;;;;;5075421;28;20300;-80
2023/05/04 02:24:53;;;;;;;8.67;4.60;;;3.20;99.90;;;;;;5078484;28;20623;-79
2023/05/04 02:27:20;;;;;;;7.27;4.00;;;3.20;99.90;;;;;;5076291;28;20225;-80
2023/05/04 02:29:49;;;;;;;9.97;4.63;;;3.20;99.90;;;;;;5075956;28;20250;-79
2023/05/04 02:32:15;;;;;;;8.07;4.40;;;3.20;99.90;;;;;;5073536;28;20236;-79
2023/05/04 02:34:42;;;;;;;13.20;4.50;;;3.10;99.90;;;;;;5071908;28;20232;-79
2023/05/04 02:37:09;;;;;;;8.97;3.87;;;3.10;99.90;;;;;;5063740;28;20290;-80
2023/05/04 02:39:36;;;;;;;8.43;4.13;;;3.10;99.90;;;;;;5075728;28;20711;-80
2023/05/04 02:42:03;;;;;;;10.27;4.77;;;3.10;99.90;;;;;;5094010;28;20308;-80
2023/05/04 02:44:29;;;;;;;6.70;3.53;;;3.10;99.90;;;;;;5093764;28;20224;-80
2023/05/04 02:46:57;;;;;;;6.97;3.60;;;3.10;99.90;;;;;;5078222;28;20297;-81
2023/05/04 02:49:25;;;;;;;6.50;3.80;;;3.00;99.90;;;;;;5076213;28;20226;-81
2023/05/04 02:51:51;;;;;;;8.97;4.17;;;3.00;99.90;;;;;;5095282;28;20231;-81
2023/05/04 02:54:18;;;;;;;10.63;3.90;;;3.00;99.90;;;;;;5091644;28;20333;-81
2023/05/04 02:56:45;;;;;;;7.37;3.93;;;3.00;99.90;;;;;;5076523;28;20228;-79
2023/05/04 02:59:12;;;;;;;7.57;3.63;;;3.00;99.90;;;;;;5069820;28;20230;-80
2023/05/04 03:01:39;;;;;;;8.00;4.70;;;2.90;99.90;;;;;;5099006;28;20304;-80
2023/05/04 03:04:07;;;;;;;9.57;4.30;;;2.90;99.90;;;;;;5091744;28;20253;-80
2023/05/04 03:06:35;;;;;;;11.70;4.07;;;2.90;99.90;;;;;;5097829;28;20251;-80
2023/05/04 03:09:01;;;;;;;8.97;4.60;;;2.90;99.90;;;;;;5076094;28;20229;-80
2023/05/04 03:11:28;;;;;;;8.60;3.97;;;2.90;99.90;;;;;;5076287;28;20227;-80
2023/05/04 03:13:55;;;;;;;8.50;4.20;;;2.80;99.90;;;;;;5076863;28;20310;-80
2023/05/04 03:16:22;;;;;;;7.30;4.10;;;2.80;99.90;;;;;;5073457;28;20240;-80
2023/05/04 03:18:50;;;;;;;5.93;4.53;;;2.80;99.90;;;;;;5072494;28;20224;-80
2023/05/04 03:21:18;;;;;;;7.60;4.10;;;2.80;99.90;;;;;;5076845;28;20234;-80
2023/05/04 03:23:45;;;;;;;9.40;4.67;;;2.70;99.90;;;;;;5081455;28;20229;-80
2023/05/04 03:26:12;;;;;;;6.80;4.00;;;2.70;99.90;;;;;;5075777;28;20223;-80
2023/05/04 03:28:38;;;;;;;8.97;4.37;;;2.70;99.90;;;;;;5077013;28;20269;-81
2023/05/04 03:31:06;;;;;;;10.17;4.57;;;2.60;99.90;;;;;;5076566;28;20608;-80
2023/05/04 03:33:32;;;;;;;8.13;4.30;;;2.60;99.90;;;;;;5100079;28;20685;-80
2023/05/04 03:35:59;;;;;;;6.20;4.40;;;2.70;99.90;;;;;;5072309;28;20272;-80
2023/05/04 03:38:28;;;;;;;9.17;4.43;;;2.60;99.90;;;;;;5076342;28;20228;-80
2023/05/04 03:40:55;;;;;;;7.70;4.20;;;2.60;99.90;;;;;;5082942;28;20214;-80
2023/05/04 03:43:23;;;;;;;11.73;4.50;;;2.50;99.90;;;;;;5078223;28;20219;-80
2023/05/04 03:45:50;;;;;;;11.73;5.03;;;2.50;99.90;;;;;;5103286;28;20850;-80
2023/05/04 03:48:17;;;;;;;10.43;4.33;;;2.50;99.90;;;;;;5076195;28;20775;-80
2023/05/04 03:50:44;;;;;;;10.70;4.33;;;2.50;99.90;;;;;;5096839;28;20227;-80
2023/05/04 03:53:11;;;;;;;11.93;4.80;;;2.50;99.90;;;;;;5072977;28;20774;-80
2023/05/04 03:55:39;;;;;;;8.13;4.23;;;2.50;99.90;;;;;;5080913;28;20228;-80
2023/05/04 03:58:06;;;;;;;7.40;4.70;;;2.50;99.90;;;;;;5083963;28;20221;-80
2023/05/04 04:00:33;;;;;;;7.87;4.50;;;2.50;99.90;;;;;;5097243;28;20216;-80
2023/05/04 04:03:08;;;;;;;9.03;4.70;;;2.50;99.90;;;;;;5077947;28;20259;-80
2023/05/04 04:05:36;;;;;;;9.67;4.30;;;2.50;99.90;;;;;;5082023;28;20239;-80
2023/05/04 04:08:03;;;;;;;9.03;5.00;;;2.60;99.90;;;;;;5077003;28;20227;-80
2023/05/04 04:10:31;;;;;;;8.87;4.60;;;2.60;99.90;;;;;;5081582;28;20229;-80
2023/05/04 04:12:59;;;;;;;6.10;4.40;;;2.60;99.90;;;;;;5098881;28;20280;-79
2023/05/04 04:15:25;;;;;;;11.27;4.97;;;2.70;99.90;;;;;;5082014;28;20226;-80
2023/05/04 04:17:52;;;;;;;7.93;4.67;;;2.70;99.90;;;;;;5099267;28;20226;-80
2023/05/04 04:20:19;;;;;;;9.33;4.63;;;2.70;99.90;;;;;;5097542;28;20225;-80
2023/05/04 04:22:46;;;;;;;8.63;4.80;;;2.80;99.90;;;;;;5097792;28;20792;-80
2023/05/04 04:25:13;;;;;;;9.07;4.40;;;2.80;99.90;;;;;;5097097;28;20257;-80
2023/05/04 04:27:40;;;;;;;11.50;5.17;;;2.90;99.90;;;;;;5083293;28;20226;-80
2023/05/04 04:30:09;;;;;;;10.10;4.90;;;2.90;99.90;;;;;;5096782;28;20220;-80
2023/05/04 04:32:36;;;;;;;8.43;4.43;;;3.00;99.90;;;;;;5099993;28;20224;-80
2023/05/04 04:35:04;;;;;;;10.17;4.80;;;3.10;99.90;;;;;;5095782;28;20247;-81
2023/05/04 04:37:31;;;;;;;8.60;4.27;;;3.20;99.90;;;;;;5080587;28;20750;-79
2023/05/04 04:39:57;;;;;;;9.00;4.87;;;3.30;99.90;;;;;;5097996;28;20229;-79
2023/05/04 04:42:24;;;;;;;7.77;4.40;;;3.40;99.90;;;;;;5095134;28;20236;-79
2023/05/04 04:44:51;;;;;;;8.97;4.50;;;3.60;99.90;;;;;;5082285;28;20248;-79
2023/05/04 04:47:19;;;;;;;9.03;4.07;;;3.70;99.90;;;;;;5075673;28;20690;-79
2023/05/04 04:49:46;;;;;;;9.70;4.30;;;3.90;99.90;;;;;;5092874;28;20302;-80
2023/05/04 04:52:13;;;;;;;9.10;4.47;;;4.00;99.90;;;;;;5077906;28;20289;-79
2023/05/04 04:54:40;;;;;;;7.37;4.40;;;4.10;99.90;;;;;;5073696;28;20235;-80
2023/05/04 04:57:06;;;;;;;7.27;3.93;;;4.30;99.90;;;;;;5097426;28;20228;-80
2023/05/04 04:59:33;;;;;;;7.50;4.30;;;4.40;99.90;;;;;;5096218;28;20231;-80
2023/05/04 05:02:00;;;;;;;8.53;4.47;;;4.50;99.90;;;;;;5077880;28;20221;-80
2023/05/04 05:04:28;;;;;;;7.30;4.40;;;4.60;99.90;;;;;;5072649;28;20952;-81
2023/05/04 05:06:55;;;;;;;8.80;4.40;;;4.70;99.90;;;;;;5073897;28;20291;-80
2023/05/04 05:09:22;;;;;;;9.00;4.20;;;4.80;99.90;;;;;;5097962;28;20228;-79
2023/05/04 05:11:49;;;;;;;9.27;4.23;;;4.90;99.90;;;;;;5075814;28;20227;-81
2023/05/04 05:14:16;;;;;;;7.83;4.17;;;5.00;99.90;;;;;;5093475;28;21054;-81
2023/05/04 05:16:43;;;;;;;9.10;3.90;;;5.10;99.90;;;;;;5074068;28;20279;-82
2023/05/04 05:19:10;;;;;;;8.57;4.30;;;5.20;99.90;;;;;;5092346;28;20217;-81
2023/05/04 05:21:39;;;;;;;8.93;4.50;;;5.40;99.90;;;;;;5079243;28;20306;-82
2023/05/04 05:24:06;;;;;;;7.03;3.80;;;5.50;99.90;;;;;;5075505;28;20229;-81
2023/05/04 05:26:33;;;;;;;9.03;4.10;;;5.60;99.90;;;;;;5101814;28;20260;-81
2023/05/04 05:28:59;;;;;;;9.13;3.73;;;5.80;99.90;;;;;;5104530;28;20309;-80
2023/05/04 05:31:26;;;;;;;7.10;3.47;;;5.90;99.90;;;;;;5098887;28;20304;-81
2023/05/04 05:33:53;;;;;;;8.53;3.80;;;6.10;99.90;;;;;;5078400;28;20221;-81
2023/05/04 05:36:20;;;;;;;7.70;3.63;;;6.20;99.90;;;;;;5082133;28;20270;-81
2023/05/04 05:38:48;;;;;;;7.03;3.30;;;6.30;99.90;;;;;;5082619;28;20894;-81
2023/05/04 05:41:15;;;;;;;7.23;3.60;;;6.40;99.90;;;;;;5100608;28;20289;-80
2023/05/04 05:43:41;;;;;;;10.87;3.63;;;6.50;99.90;;;;;;5082497;28;20316;-81
2023/05/04 05:46:08;;;;;;;8.80;3.43;;;6.60;99.90;;;;;;5081204;28;20217;-81
2023/05/04 05:48:35;;;;;;;7.77;3.83;;;6.70;99.90;;;;;;5096285;28;20570;-81
2023/05/04 05:51:02;;;;;;;7.40;3.60;;;6.70;99.90;;;;;;5083925;28;20939;-80
2023/05/04 05:53:29;;;;;;;7.87;3.63;;;6.80;99.90;;;;;;5081179;28;20750;-80
2023/05/04 05:55:58;;;;;;;8.43;4.00;;;6.90;99.90;;;;;;5073902;28;20812;-81
2023/05/04 05:58:24;;;;;;;9.83;3.73;;;7.00;99.90;;;;;;5073677;28;20754;-81
2023/05/04 06:00:51;;;;;;;11.00;4.10;;;7.00;99.90;;;;;;5067957;28;20226;-77
2023/05/04 06:03:18;;;;;;;7.47;4.57;;;7.10;99.90;;;;;;5074234;28;20674;-77
2023/05/04 06:05:45;;;;;;;9.87;4.07;;;7.20;99.90;;;;;;5088466;28;20280;-77
2023/05/04 06:08:11;;;;;;;9.33;4.00;;;7.30;99.90;;;;;;5069407;28;20249;-77
2023/05/04 06:10:38;;;;;;;6.37;3.70;;;7.40;99.90;;;;;;5088442;28;20244;-77
2023/05/04 06:13:06;;;;;;;6.10;3.03;;;7.50;99.90;;;;;;5086609;28;20345;-77
2023/05/04 06:15:33;;;;;;;6.30;2.90;;;7.60;99.90;;;;;;5088158;28;20267;-78
2023/05/04 06:18:00;;;;;;;8.57;4.07;;;7.70;99.90;;;;;;5087320;28;20250;-77
2023/05/04 06:20:27;;;;;;;6.73;3.03;;;7.90;99.90;;;;;;5087315;28;20218;-77
2023/05/04 06:22:54;;;;;;;8.37;2.80;;;8.00;99.90;;;;;;5069504;28;20226;-78
2023/05/04 06:25:21;;;;;;;7.37;3.23;;;8.10;99.90;;;;;;5084779;28;20236;-76
2023/05/04 06:27:48;;;;;;;6.60;2.60;;;8.30;99.90;;;;;;5100994;27;20309;-76
2023/05/04 06:30:16;;;;;;;7.37;2.90;;;8.50;99.90;;;;;;5094532;28;20215;-77
2023/05/04 06:32:43;;;;;;;5.23;2.77;;;8.70;99.90;;;;;;5074770;28;20684;-77
2023/05/04 06:35:10;;;;;;;8.30;2.97;;;8.90;99.90;;;;;;5082548;28;20654;-77
2023/05/04 06:37:37;;;;;;;4.97;2.90;;;9.10;99.90;;;;;;5098172;28;20355;-77
2023/05/04 06:40:06;;;;;;;6.43;3.30;;;9.30;99.90;;;;;;5078675;28;20215;-77
2023/05/04 06:42:32;;;;;;;6.43;2.73;;;9.60;99.90;;;;;;5098167;28;20302;-77
2023/05/04 06:44:59;;;;;;;8.13;2.20;;;9.80;99.90;;;;;;5096007;28;20299;-77
2023/05/04 06:47:28;;;;;;;9.03;2.63;;;10.10;99.90;;;;;;5100816;28;20226;-77
2023/05/04 06:49:54;;;;;;;8.77;2.70;;;10.30;99.60;;;;;;5097138;28;20234;-77
2023/05/04 06:52:21;;;;;;;5.87;3.13;;;10.60;99.50;;;;;;5094547;28;20256;-77
2023/05/04 06:54:48;;;;;;;5.73;2.50;;;10.90;99.50;;;;;;5100896;28;20327;-77
2023/05/04 06:57:14;;;;;;;5.73;2.00;;;11.10;99.10;;;;;;5104872;28;20226;-77
2023/05/04 06:59:41;;;;;;;7.53;2.67;;;11.40;99.00;;;;;;5104481;28;20226;-77
2023/05/04 07:02:08;;;;;;;4.47;2.10;;;11.60;98.50;;;;;;5078652;28;20228;-77
2023/05/04 07:04:37;;;;;;;8.13;2.90;;;11.90;98.00;;;;;;5098297;28;20284;-78
2023/05/04 07:07:04;;;;;;;3.77;2.13;;;12.10;97.70;;;;;;5100784;28;20617;-77
2023/05/04 07:09:31;;;;;;;6.20;2.27;;;12.40;97.70;;;;;;5101803;28;20235;-77
2023/05/04 07:11:57;;;;;;;5.10;1.83;;;12.70;95.90;;;;;;5100260;28;20223;-78
2023/05/04 07:14:24;;;;;;;5.87;2.10;;;13.10;96.50;;;;;;5099757;28;20241;-77
2023/05/04 07:16:51;;;;;;;5.57;2.30;;;13.50;95.80;;;;;;5098196;28;20226;-78
2023/05/04 07:19:17;;;;;;;4.40;2.17;;;14.00;94.10;;;;;;5082167;28;20596;-78
2023/05/04 07:21:46;;;;;;;3.97;1.80;;;14.50;93.60;;;;;;5102739;28;20752;-77
2023/05/04 07:24:12;;;;;;;4.33;1.57;;;14.90;93.40;;;;;;5080192;28;20240;-77
2023/05/04 07:26:39;;;;;;;3.97;1.92;;;15.40;93.00;;;;;;5079941;28;20226;-78
2023/05/04 07:29:06;;;;;;;4.33;2.07;;;15.80;92.40;;;;;;5095699;28;20222;-78
2023/05/04 07:31:33;;;;;;;4.65;2.10;;;16.30;90.60;;;;;;5102436;28;20240;-78
2023/05/04 07:34:00;;;;;;;5.40;1.97;;;16.80;91.00;;;;;;5085218;28;20383;-78
2023/05/04 07:36:27;;;;;;;5.70;2.17;;;17.20;90.40;;;;;;5095204;28;20222;-78
2023/05/04 07:38:55;;;;;;;4.03;1.70;;;17.70;87.70;;;;;;5102640;28;20233;-77
2023/05/04 07:41:22;;;;;;;5.57;1.88;;;18.00;85.70;;;;;;5079719;28;20301;-78
2023/05/04 07:43:49;;;;;;;5.90;1.70;;;18.30;85.40;;;;;;5083002;28;20230;-78
2023/05/04 07:46:16;;;;;;;6.55;1.40;;;18.50;81.70;;;;;;5100561;28;20220;-78
2023/05/04 07:48:42;;;;;;;4.45;1.63;;;18.70;79.70;;;;;;5103252;28;20221;-78
2023/05/04 07:51:12;;;;;;;4.10;1.85;;;18.80;76.90;;;;;;5077365;28;20234;-77
2023/05/04 07:53:39;;;;;;;3.50;1.70;;;18.80;74.40;;;;;;5081721;28;20227;-77
2023/05/04 07:56:12;;;;;;;4.47;1.58;;;18.90;75.90;;;;;;5103071;28;20232;-78
2023/05/04 07:58:39;;;;;;;6.65;1.55;;;18.90;75.30;;;;;;5098320;28;20226;-77
2023/05/04 08:01:05;;;;;;;3.60;1.75;;;19.10;77.80;;;;;;5095786;28;20253;-77
2023/05/04 08:03:32;;;;;;;3.58;1.40;;;19.20;74.70;;;;;;5086362;28;20218;-77
2023/05/04 08:05:59;;;;;;;4.50;1.75;;;19.40;75.60;;;;;;5083279;28;20236;-77
2023/05/04 08:08:26;;;;;;;7.45;1.65;;;19.60;75.40;;;;;;5099620;28;20866;-78
2023/05/04 08:10:53;;;;;;;5.10;1.75;;;19.90;74.90;;;;;;5101225;28;20350;-77
2023/05/04 08:13:22;;;;;;;4.47;1.70;;;20.10;74.80;;;;;;5101009;28;20236;-77
2023/05/04 08:15:49;;;;;;;3.00;1.70;;;20.40;69.50;;;;;;5103328;28;20214;-78
2023/05/04 08:18:16;;;;;;;6.43;2.05;;;20.30;65.80;;;;;;5095226;28;20333;-78
2023/05/04 08:20:43;;;;;;;4.07;1.63;;;20.30;69.00;;;;;;5081206;28;20309;-77
2023/05/04 08:23:10;;;;;;;5.75;2.17;;;20.20;69.90;;;;;;5076203;28;20249;-77
2023/05/04 08:25:36;;;;;;;5.15;1.83;;;20.20;69.20;;;;;;5098922;28;20227;-77
2023/05/04 08:28:03;;;;;;;5.07;1.77;;;20.10;68.90;;;;;;5097176;28;20222;-77
2023/05/04 08:30:31;;;;;;;4.15;1.77;;;20.10;69.00;;;;;;5091410;28;20225;-77
2023/05/04 08:32:59;;;;;;;3.83;1.63;;;20.10;67.40;;;;;;5100369;28;20226;-78
2023/05/04 08:35:26;;;;;;;5.50;1.70;;;20.20;68.90;;;;;;5098429;28;20257;-78
2023/05/04 08:37:53;;;;;;;5.65;1.67;;;20.30;69.40;;;;;;5094453;28;20230;-78
2023/05/04 08:40:20;;;;;;;5.43;1.70;;;20.50;69.80;;;;;;5100703;28;20660;-78
2023/05/04 08:42:49;;;;;;;4.28;1.70;;;20.80;68.90;;;;;;5095939;28;20229;-78
2023/05/04 08:45:16;;;;;;;5.75;2.20;;;21.00;68.10;;;;;;5088188;28;20221;-78
2023/05/04 08:47:44;;;;;;;6.05;1.95;;;21.20;67.90;;;;;;5100560;28;20222;-78
2023/05/04 08:50:12;;;;;;;4.20;1.85;;;21.40;66.90;;;;;;5098168;28;20218;-78
2023/05/04 08:52:45;;;;;;;6.82;1.88;;;21.40;66.00;;;;;;5100800;28;20226;-78
2023/05/04 08:55:12;;;;;;;4.55;1.70;;;21.50;65.10;;;;;;5106001;28;20805;-78
2023/05/04 08:57:42;;;;;;;7.55;1.55;;;21.50;63.90;;;;;;5079236;28;20254;-78
2023/05/04 09:00:12;;;;;;;3.50;1.67;;;21.50;62.30;;;;;;5097773;28;20662;-78
2023/05/04 09:02:40;;;;;;;6.63;2.10;;;21.50;63.30;;;;;;5099600;28;20222;-78
2023/05/04 09:05:10;;;;;;;5.57;2.10;;;21.50;63.00;;;;;;5099956;28;20261;-78
2023/05/04 09:07:37;;;;;;;5.05;1.73;;;21.50;62.80;;;;;;5100969;28;20229;-78
2023/05/04 09:10:06;;;;;;;4.68;1.95;;;21.60;63.80;;;;;;5107265;28;20218;-78
2023/05/04 09:12:33;;;;;;;3.72;1.70;;;21.60;64.00;;;;;;5078342;28;20214;-78
2023/05/04 09:15:01;;;;;;;4.78;1.95;;;21.60;63.70;;;;;;5099475;28;20219;-78
2023/05/04 09:17:28;;;;;;;5.47;1.70;;;21.70;63.80;;;;;;5093066;28;20223;-78
2023/05/04 09:19:58;;;;;;;6.22;2.22;;;21.70;63.60;;;;;;5105714;28;20722;-78
2023/05/04 09:22:27;;;;;;;5.38;1.88;;;21.80;62.80;;;;;;5102799;28;20295;-78
2023/05/04 09:24:54;;;;;;;7.70;2.00;;;22.00;63.00;;;;;;5101288;28;20228;-78
2023/05/04 09:27:21;;;;;;;4.75;1.70;;;22.00;60.50;;;;;;5095047;28;20299;-78
2023/05/04 09:29:57;;;;;;;4.10;1.95;;;22.20;62.50;;;;;;5101553;28;20225;-77
2023/05/04 09:32:24;;;;;;;8.13;2.17;;;22.40;61.20;;;;;;5099711;28;20226;-77
2023/05/04 09:34:51;;;;;;;5.90;2.25;;;22.60;61.90;;;;;;5100785;28;20593;-78
2023/05/04 09:37:19;;;;;;;5.93;1.73;;;22.80;61.40;;;;;;5084224;28;20570;-78
2023/05/04 09:39:54;;;;;;;5.95;2.10;;;23.00;61.30;;;;;;5079950;28;20223;-78
2023/05/04 09:42:22;;;;;;;3.90;1.73;;;23.20;59.70;;;;;;5084834;28;20711;-78
2023/05/04 09:45:00;;;;;;;5.72;1.85;;;23.40;60.20;;;;;;5104763;28;20235;-78
2023/05/04 09:47:34;;;;;;;6.07;2.00;;;23.50;59.30;;;;;;5105409;28;20291;-78
2023/05/04 09:50:15;;;;;;;5.15;1.70;;;23.60;57.30;;;;;;5104496;28;20228;-78
2023/05/04 09:52:42;;;;;;;3.17;1.77;;;23.50;56.80;;;;;;5080933;28;20218;-78
2023/05/04 09:55:13;;;;;;;3.85;1.80;;;23.40;57.00;;;;;;5096681;28;20218;-77
2023/05/04 09:57:41;;;;;;;5.50;2.15;;;23.20;57.80;;;;;;5104845;28;20278;-78
2023/05/04 10:00:10;;;;;;;4.68;1.63;;;23.20;57.60;;;;;;5080295;28;20912;-78
2023/05/04 10:02:37;;;;;;;5.32;2.10;;;23.30;58.40;;;;;;5086188;28;20578;-78
2023/05/04 10:05:06;;;;;;;5.30;1.90;;;23.40;57.70;;;;;;5104954;28;20254;-78
2023/05/04 10:07:33;;;;;;;4.25;1.60;;;23.50;57.70;;;;;;5103117;28;20232;-78
2023/05/04 10:10:00;;;;;;;4.38;2.00;;;23.60;58.30;;;;;;5102312;28;20219;-78
2023/05/04 10:12:28;;;;;;;4.50;1.90;;;23.70;56.50;;;;;;5099435;28;20219;-78
2023/05/04 10:14:55;;;;;;;4.07;2.00;;;23.90;56.10;;;;;;5079649;28;20219;-78
2023/05/04 10:17:34;;;;;;;2.95;1.73;;;24.00;55.60;;;;;;5100288;28;20214;-77
2023/05/04 10:20:29;;;;;;;5.82;1.70;;;24.10;55.50;;;;;;5097341;28;20267;-77
2023/05/04 10:23:11;;;;;;;4.68;1.85;;;24.20;55.70;;;;;;5101036;28;20724;-78
2023/05/04 10:26:01;;;;;;;5.20;1.70;;;24.30;54.80;;;;;;5101464;28;20221;-78
2023/05/04 10:28:40;;;;;;;4.35;2.05;;;24.30;54.70;;;;;;5099648;28;20290;-77
2023/05/04 10:31:07;;;;;;;3.17;1.80;;;24.40;53.90;;;;;;5103620;28;20228;-77
2023/05/04 10:33:42;;;;;;;4.00;2.03;;;24.30;53.30;;;;;;5103722;28;20226;-77
2023/05/04 10:36:09;;;;;;;5.20;2.10;;;24.20;52.80;;;;;;5095452;28;20214;-78
2023/05/04 10:38:37;;;;;;;4.43;1.77;;;24.10;53.50;;;;;;5097125;28;20213;-78
2023/05/04 10:41:14;;;;;;;5.55;1.75;;;24.00;53.20;;;;;;5101338;28;20214;-78
2023/05/04 10:43:47;;;;;;;3.75;1.90;;;23.90;53.70;;;;;;5082984;28;20237;-78
2023/05/04 10:46:18;;;;;;;3.22;1.95;;;23.90;53.30;;;;;;5099695;28;20625;-78
2023/05/04 10:48:44;;;;;;;4.43;1.77;;;23.90;52.40;;;;;;5098896;28;20598;-80
2023/05/04 10:51:18;;;;;;;3.60;1.80;;;23.80;52.90;;;;;;5102276;28;20308;-78
2023/05/04 10:53:46;;;;;;;6.00;1.73;;;23.70;51.70;;;;;;5104332;28;20229;-78
2023/05/04 10:56:23;;;;;;;4.85;1.95;;;23.60;52.70;;;;;;5100656;28;20210;-79
2023/05/04 10:58:53;;;;;;;4.45;1.65;;;23.60;52.90;;;;;;5096758;28;20217;-77
2023/05/04 11:01:20;;;;;;;5.60;1.85;;;23.80;53.30;;;;;;5084249;28;20218;-77
2023/05/04 11:03:49;;;;;;;3.80;1.52;;;24.00;52.30;;;;;;5098372;28;20219;-78
2023/05/04 11:06:17;;;;;;;4.03;1.73;;;24.30;52.10;;;;;;5102248;28;20222;-77
2023/05/04 11:08:48;;;;;;;5.82;1.85;;;24.40;51.80;;;;;;5078085;28;20227;-78
2023/05/04 11:11:15;;;;;;;5.15;1.98;;;24.60;52.00;;;;;;5080952;28;20229;-79
2023/05/04 11:13:45;;;;;;;5.47;1.90;;;24.60;51.40;;;;;;5100040;28;20225;-79
2023/05/04 11:16:13;;;;;;;6.50;1.73;;;24.70;51.20;;;;;;5096123;28;20726;-79
2023/05/04 11:18:40;;;;;;;3.05;1.80;;;24.70;50.30;;;;;;5096386;28;20295;-79
2023/05/04 11:21:08;;;;;;;3.67;1.58;;;24.70;49.40;;;;;;5077154;28;20214;-79
2023/05/04 11:23:35;;;;;;;3.78;1.70;;;24.70;50.20;;;;;;5087084;28;20219;-78
2023/05/04 11:26:05;;;;;;;4.13;1.60;;;24.50;50.70;;;;;;5092737;28;20219;-78
2023/05/04 11:28:33;;;;;;;3.53;1.55;;;24.50;50.70;;;;;;5079746;28;21092;-78
2023/05/04 11:31:00;;;;;;;4.38;1.80;;;24.50;51.50;;;;;;5095507;28;20254;-79
2023/05/04 11:33:28;;;;;;;5.13;1.60;;;24.70;51.80;;;;;;5096008;28;20230;-78
2023/05/04 11:36:01;;;;;;;5.78;1.70;;;24.90;51.20;;;;;;5099701;28;20617;-78
2023/05/04 11:38:27;;;;;;;3.22;1.67;;;25.10;50.10;;;;;;5097797;28;20218;-78
2023/05/04 11:40:54;;;;;;;3.72;1.63;;;25.20;49.80;;;;;;5096734;28;20660;-78
2023/05/04 11:43:22;;;;;;;4.78;1.90;;;25.30;50.00;;;;;;5095666;28;20222;-79
2023/05/04 11:45:50;;;;;;;3.63;1.70;;;25.30;48.90;;;;;;5097777;28;20226;-78
2023/05/04 11:48:17;;;;;;;3.65;1.77;;;25.30;49.20;;;;;;5100500;28;20313;-78
2023/05/04 11:50:47;;;;;;;4.05;1.85;;;25.30;49.70;;;;;;5096204;28;20257;-78
2023/05/04 11:53:14;;;;;;;4.20;1.83;;;25.40;49.00;;;;;;5096304;28;20279;-78
2023/05/04 11:55:42;;;;;;;5.03;1.80;;;25.50;49.20;;;;;;5097803;28;20233;-78
2023/05/04 11:58:10;;;;;;;3.85;1.60;;;25.60;49.10;;;;;;5080201;28;20215;-79
2023/05/04 12:00:39;;;;;;;6.45;1.60;;;25.70;48.70;;;;;;5098549;28;20225;-79
2023/05/04 12:03:07;;;;;;;2.50;1.67;;;25.70;48.00;;;;;;5077905;28;20240;-79
2023/05/04 12:05:34;;;;;;;4.72;1.58;;;25.70;47.70;;;;;;5092495;28;20230;-79
2023/05/04 12:08:03;;;;;;;5.80;1.85;;;25.60;46.50;;;;;;5099904;28;20242;-79
2023/05/04 12:10:32;;;;;;;5.20;1.80;;;25.40;46.50;;;;;;5100115;28;20302;-78
2023/05/04 12:12:59;;;;;;;4.25;1.85;;;25.10;47.20;;;;;;5100547;28;20271;-78
2023/05/04 12:15:32;;;;;;;3.60;1.58;;;25.00;47.20;;;;;;5094940;28;20236;-78
2023/05/04 12:17:59;;;;;;;5.30;2.00;;;24.70;46.70;;;;;;5097345;28;20221;-79
2023/05/04 12:20:28;;;;;;;3.90;1.70;;;24.50;47.10;;;;;;5101316;28;20305;-79
2023/05/04 12:22:55;;;;;;;3.15;1.67;;;24.30;47.70;;;;;;5103361;28;20230;-78
2023/05/04 12:25:26;;;;;;;4.95;1.98;;;24.20;47.90;;;;;;5098776;28;20237;-78
2023/05/04 12:27:56;;;;;;;3.10;1.50;;;24.20;48.10;;;;;;5099442;28;20299;-78
2023/05/04 12:30:25;;;;;;;6.05;1.60;;;24.40;48.40;;;;;;5105660;28;20221;-78
2023/05/04 12:32:52;;;;;;;2.80;1.33;;;24.50;47.90;;;;;;5102953;28;20249;-79
2023/05/04 12:35:18;;;;;;;5.63;1.98;;;24.70;47.70;;;;;;5103976;28;20222;-79
2023/05/04 12:37:45;;;;;;;5.60;1.98;;;24.90;47.00;;;;;;5099848;28;20606;-79
2023/05/04 12:40:13;;;;;;;3.55;1.60;;;24.90;46.90;;;;;;5099919;28;20220;-79
2023/05/04 12:42:42;;;;;;;3.40;1.92;;;25.00;47.30;;;;;;5099607;28;20242;-79
2023/05/04 12:45:10;;;;;;;4.97;1.77;;;25.00;47.10;;;;;;5096102;28;20210;-79
2023/05/04 12:47:41;;;;;;;5.28;1.77;;;24.90;47.20;;;;;;5099930;28;20222;-79
2023/05/04 12:50:08;;;;;;;4.13;1.90;;;24.80;47.00;;;;;;5094075;28;20712;-79
2023/05/04 12:52:35;;;;;;;3.00;1.70;;;24.70;46.90;;;;;;5084624;28;20222;-78
2023/05/04 12:55:02;;;;;;;4.20;1.73;;;24.70;47.40;;;;;;5095262;28;20233;-79